sensor_id;sensor_type;location;lat;lon;timestamp;temperature;humidity
67862;DHT22;54665;51.462;6.698;2022-07-04T00:01:04;13.43;76.98
67862;DHT22;54665;51.462;6.698;2022-07-04T00:03:30;13.51;76.92
67862;DHT22;54665;51.462;6.698;2022-07-04T00:05:55;13.54;76.90
67862;DHT22;54665;51.462;6.698;2022-07-04T00:08:20;13.58;76.56
67862;DHT22;54665;51.462;6.698;2022-07-04T00:10:46;13.58;76.71
67862;DHT22;54665;51.462;6.698;2022-07-04T00:13:11;13.62;76.75
67862;DHT22;54665;51.462;6.698;2022-07-04T00:15:37;13.70;76.57
67862;DHT22;54665;51.462;6.698;2022-07-04T00:18:02;13.65;76.59
67862;DHT22;54665;51.462;6.698;2022-07-04T00:20:28;13.54;77.22
67862;DHT22;54665;51.462;6.698;2022-07-04T00:22:53;13.40;77.45
67862;DHT22;54665;51.462;6.698;2022-07-04T00:25:19;13.40;78.01
67862;DHT22;54665;51.462;6.698;2022-07-04T00:27:44;13.41;78.10
67862;DHT22;54665;51.462;6.698;2022-07-04T00:30:10;13.39;78.30
67862;DHT22;54665;51.462;6.698;2022-07-04T00:32:35;13.31;78.46
67862;DHT22;54665;51.462;6.698;2022-07-04T00:35:00;13.30;78.58
67862;DHT22;54665;51.462;6.698;2022-07-04T00:37:26;13.31;79.17
67862;DHT22;54665;51.462;6.698;2022-07-04T00:39:51;13.31;78.80
67862;DHT22;54665;51.462;6.698;2022-07-04T00:42:17;13.24;78.98
67862;DHT22;54665;51.462;6.698;2022-07-04T00:44:42;13.02;79.60
67862;DHT22;54665;51.462;6.698;2022-07-04T00:47:08;12.95;80.34
67862;DHT22;54665;51.462;6.698;2022-07-04T00:49:34;12.82;80.57
67862;DHT22;54665;51.462;6.698;2022-07-04T00:52:00;12.71;81.31
67862;DHT22;54665;51.462;6.698;2022-07-04T00:54:30;12.66;82.14
67862;DHT22;54665;51.462;6.698;2022-07-04T00:56:57;12.66;82.74
67862;DHT22;54665;51.462;6.698;2022-07-04T00:59:23;12.62;82.92
67862;DHT22;54665;51.462;6.698;2022-07-04T01:01:50;12.51;83.36
67862;DHT22;54665;51.462;6.698;2022-07-04T01:04:15;12.49;83.53
67862;DHT22;54665;51.462;6.698;2022-07-04T01:06:42;12.35;84.24
67862;DHT22;54665;51.462;6.698;2022-07-04T01:09:08;12.27;84.97
67862;DHT22;54665;51.462;6.698;2022-07-04T01:11:33;12.14;85.51
67862;DHT22;54665;51.462;6.698;2022-07-04T01:13:59;11.98;85.97
67862;DHT22;54665;51.462;6.698;2022-07-04T01:16:25;11.84;86.54
67862;DHT22;54665;51.462;6.698;2022-07-04T01:18:51;11.73;86.95
67862;DHT22;54665;51.462;6.698;2022-07-04T01:21:18;11.76;87.43
67862;DHT22;54665;51.462;6.698;2022-07-04T01:23:43;11.76;87.59
67862;DHT22;54665;51.462;6.698;2022-07-04T01:26:09;11.66;87.67
67862;DHT22;54665;51.462;6.698;2022-07-04T01:28:35;11.62;87.81
67862;DHT22;54665;51.462;6.698;2022-07-04T01:31:00;11.60;88.20
67862;DHT22;54665;51.462;6.698;2022-07-04T01:33:26;11.55;88.39
67862;DHT22;54665;51.462;6.698;2022-07-04T01:35:51;11.53;88.82
67862;DHT22;54665;51.462;6.698;2022-07-04T01:38:17;11.44;88.87
67862;DHT22;54665;51.462;6.698;2022-07-04T01:40:42;11.36;88.99
67862;DHT22;54665;51.462;6.698;2022-07-04T01:43:08;11.28;89.15
67862;DHT22;54665;51.462;6.698;2022-07-04T01:45:35;11.16;89.35
67862;DHT22;54665;51.462;6.698;2022-07-04T01:48:06;11.09;89.59
67862;DHT22;54665;51.462;6.698;2022-07-04T01:50:33;11.08;89.91
67862;DHT22;54665;51.462;6.698;2022-07-04T01:52:59;11.14;90.26
67862;DHT22;54665;51.462;6.698;2022-07-04T01:55:25;11.08;90.43
67862;DHT22;54665;51.462;6.698;2022-07-04T01:57:50;11.07;90.66
67862;DHT22;54665;51.462;6.698;2022-07-04T02:00:16;11.08;90.78
67862;DHT22;54665;51.462;6.698;2022-07-04T02:03:00;11.04;90.99
67862;DHT22;54665;51.462;6.698;2022-07-04T02:05:26;11.05;91.08
67862;DHT22;54665;51.462;6.698;2022-07-04T02:07:52;11.04;91.26
67862;DHT22;54665;51.462;6.698;2022-07-04T02:10:18;10.99;91.36
67862;DHT22;54665;51.462;6.698;2022-07-04T02:12:43;10.92;91.45
67862;DHT22;54665;51.462;6.698;2022-07-04T02:15:35;10.94;91.63
67862;DHT22;54665;51.462;6.698;2022-07-04T02:18:03;10.89;91.84
67862;DHT22;54665;51.462;6.698;2022-07-04T02:20:28;10.94;91.89
67862;DHT22;54665;51.462;6.698;2022-07-04T02:22:54;10.95;92.04
67862;DHT22;54665;51.462;6.698;2022-07-04T02:25:20;11.01;92.16
67862;DHT22;54665;51.462;6.698;2022-07-04T02:27:45;10.99;92.12
67862;DHT22;54665;51.462;6.698;2022-07-04T02:30:11;10.95;92.13
67862;DHT22;54665;51.462;6.698;2022-07-04T02:32:40;10.89;92.07
67862;DHT22;54665;51.462;6.698;2022-07-04T02:35:10;10.89;92.12
67862;DHT22;54665;51.462;6.698;2022-07-04T02:37:36;10.88;92.23
67862;DHT22;54665;51.462;6.698;2022-07-04T02:40:02;10.94;92.37
67862;DHT22;54665;51.462;6.698;2022-07-04T02:42:29;10.92;92.39
67862;DHT22;54665;51.462;6.698;2022-07-04T02:44:55;10.88;92.37
67862;DHT22;54665;51.462;6.698;2022-07-04T02:47:21;10.88;92.38
67862;DHT22;54665;51.462;6.698;2022-07-04T02:49:46;10.89;92.44
67862;DHT22;54665;51.462;6.698;2022-07-04T02:52:11;10.95;92.60
67862;DHT22;54665;51.462;6.698;2022-07-04T02:54:38;10.97;92.65
67862;DHT22;54665;51.462;6.698;2022-07-04T02:57:04;10.95;92.68
67862;DHT22;54665;51.462;6.698;2022-07-04T02:59:30;10.88;92.68
67862;DHT22;54665;51.462;6.698;2022-07-04T03:01:55;10.82;92.66
67862;DHT22;54665;51.462;6.698;2022-07-04T03:04:20;10.85;92.72
67862;DHT22;54665;51.462;6.698;2022-07-04T03:06:46;10.87;92.79
67862;DHT22;54665;51.462;6.698;2022-07-04T03:09:11;10.92;92.82
67862;DHT22;54665;51.462;6.698;2022-07-04T03:11:37;10.92;92.89
67862;DHT22;54665;51.462;6.698;2022-07-04T03:14:02;10.92;92.91
67862;DHT22;54665;51.462;6.698;2022-07-04T03:16:27;10.97;92.95
67862;DHT22;54665;51.462;6.698;2022-07-04T03:18:53;10.94;92.99
67862;DHT22;54665;51.462;6.698;2022-07-04T03:21:18;10.89;93.04
67862;DHT22;54665;51.462;6.698;2022-07-04T03:23:44;10.88;92.99
67862;DHT22;54665;51.462;6.698;2022-07-04T03:26:29;10.88;93.05
67862;DHT22;54665;51.462;6.698;2022-07-04T03:28:56;10.81;93.05
67862;DHT22;54665;51.462;6.698;2022-07-04T03:31:22;10.85;93.06
67862;DHT22;54665;51.462;6.698;2022-07-04T03:33:51;10.85;93.08
67862;DHT22;54665;51.462;6.698;2022-07-04T03:36:17;10.79;93.15
67862;DHT22;54665;51.462;6.698;2022-07-04T03:38:43;10.74;93.18
67862;DHT22;54665;51.462;6.698;2022-07-04T03:41:09;10.68;93.13
67862;DHT22;54665;51.462;6.698;2022-07-04T03:43:34;10.72;93.17
67862;DHT22;54665;51.462;6.698;2022-07-04T03:46:00;10.78;93.23
67862;DHT22;54665;51.462;6.698;2022-07-04T03:48:25;10.77;93.27
67862;DHT22;54665;51.462;6.698;2022-07-04T03:50:50;10.84;93.26
67862;DHT22;54665;51.462;6.698;2022-07-04T03:53:16;10.85;93.32
67862;DHT22;54665;51.462;6.698;2022-07-04T03:55:42;10.88;93.38
67862;DHT22;54665;51.462;6.698;2022-07-04T03:58:07;10.82;93.33
67862;DHT22;54665;51.462;6.698;2022-07-04T04:00:33;10.78;93.29
67862;DHT22;54665;51.462;6.698;2022-07-04T04:03:00;10.88;93.33
67862;DHT22;54665;51.462;6.698;2022-07-04T04:05:25;10.98;93.32
67862;DHT22;54665;51.462;6.698;2022-07-04T04:08:01;11.01;93.27
67862;DHT22;54665;51.462;6.698;2022-07-04T04:10:29;11.04;93.22
67862;DHT22;54665;51.462;6.698;2022-07-04T04:12:56;11.08;93.13
67862;DHT22;54665;51.462;6.698;2022-07-04T04:15:25;11.23;93.17
67862;DHT22;54665;51.462;6.698;2022-07-04T04:17:51;11.30;93.15
67862;DHT22;54665;51.462;6.698;2022-07-04T04:20:16;11.35;93.10
67862;DHT22;54665;51.462;6.698;2022-07-04T04:22:41;11.46;93.15
67862;DHT22;54665;51.462;6.698;2022-07-04T04:25:07;11.55;93.09
67862;DHT22;54665;51.462;6.698;2022-07-04T04:27:33;11.60;93.06
67862;DHT22;54665;51.462;6.698;2022-07-04T04:29:58;11.70;92.97
67862;DHT22;54665;51.462;6.698;2022-07-04T04:32:23;11.77;93.01
67862;DHT22;54665;51.462;6.698;2022-07-04T04:34:49;11.84;92.95
67862;DHT22;54665;51.462;6.698;2022-07-04T04:37:14;11.94;92.96
67862;DHT22;54665;51.462;6.698;2022-07-04T04:39:39;12.00;92.86
67862;DHT22;54665;51.462;6.698;2022-07-04T04:42:05;12.07;92.80
67862;DHT22;54665;51.462;6.698;2022-07-04T04:44:30;12.13;92.73
67862;DHT22;54665;51.462;6.698;2022-07-04T04:46:56;12.21;92.64
67862;DHT22;54665;51.462;6.698;2022-07-04T04:49:21;12.25;92.50
67862;DHT22;54665;51.462;6.698;2022-07-04T04:51:47;12.28;92.26
67862;DHT22;54665;51.462;6.698;2022-07-04T04:54:12;12.34;92.06
67862;DHT22;54665;51.462;6.698;2022-07-04T04:56:37;12.45;91.95
67862;DHT22;54665;51.462;6.698;2022-07-04T04:59:03;12.71;91.41
67862;DHT22;54665;51.462;6.698;2022-07-04T05:01:28;12.76;91.12
67862;DHT22;54665;51.462;6.698;2022-07-04T05:03:54;12.89;90.93
67862;DHT22;54665;51.462;6.698;2022-07-04T05:06:19;13.04;90.33
67862;DHT22;54665;51.462;6.698;2022-07-04T05:08:45;13.12;89.98
67862;DHT22;54665;51.462;6.698;2022-07-04T05:11:12;13.20;89.65
67862;DHT22;54665;51.462;6.698;2022-07-04T05:13:37;13.33;89.14
67862;DHT22;54665;51.462;6.698;2022-07-04T05:16:03;13.43;88.74
67862;DHT22;54665;51.462;6.698;2022-07-04T05:18:28;13.57;87.92
67862;DHT22;54665;51.462;6.698;2022-07-04T05:20:54;13.67;87.22
67862;DHT22;54665;51.462;6.698;2022-07-04T05:23:20;13.84;86.70
67862;DHT22;54665;51.462;6.698;2022-07-04T05:25:45;13.97;86.43
67862;DHT22;54665;51.462;6.698;2022-07-04T05:28:10;14.05;86.10
67862;DHT22;54665;51.462;6.698;2022-07-04T05:30:36;14.09;85.64
67862;DHT22;54665;51.462;6.698;2022-07-04T05:33:01;14.23;85.10
67862;DHT22;54665;51.462;6.698;2022-07-04T05:35:27;14.40;84.27
67862;DHT22;54665;51.462;6.698;2022-07-04T05:37:53;14.63;83.06
67862;DHT22;54665;51.462;6.698;2022-07-04T05:40:18;14.70;82.39
67862;DHT22;54665;51.462;6.698;2022-07-04T05:42:44;14.77;82.21
67862;DHT22;54665;51.462;6.698;2022-07-04T05:45:09;14.87;81.98
67862;DHT22;54665;51.462;6.698;2022-07-04T05:47:35;15.03;81.27
67862;DHT22;54665;51.462;6.698;2022-07-04T05:50:01;15.20;81.16
67862;DHT22;54665;51.462;6.698;2022-07-04T05:52:26;15.35;80.30
67862;DHT22;54665;51.462;6.698;2022-07-04T05:54:52;15.51;79.38
67862;DHT22;54665;51.462;6.698;2022-07-04T05:57:17;16.44;76.91
67862;DHT22;54665;51.462;6.698;2022-07-04T05:59:43;17.39;73.41
67862;DHT22;54665;51.462;6.698;2022-07-04T06:02:10;18.22;69.12
67862;DHT22;54665;51.462;6.698;2022-07-04T06:04:35;19.19;65.89
67862;DHT22;54665;51.462;6.698;2022-07-04T06:07:02;20.16;60.89
67862;DHT22;54665;51.462;6.698;2022-07-04T06:09:27;20.64;59.91
67862;DHT22;54665;51.462;6.698;2022-07-04T06:11:53;21.62;56.75
67862;DHT22;54665;51.462;6.698;2022-07-04T06:14:18;22.30;56.59
67862;DHT22;54665;51.462;6.698;2022-07-04T06:16:44;22.75;54.63
67862;DHT22;54665;51.462;6.698;2022-07-04T06:19:09;22.71;54.43
67862;DHT22;54665;51.462;6.698;2022-07-04T06:21:35;22.72;55.11
67862;DHT22;54665;51.462;6.698;2022-07-04T06:24:00;22.82;54.53
67862;DHT22;54665;51.462;6.698;2022-07-04T06:26:26;22.47;54.49
67862;DHT22;54665;51.462;6.698;2022-07-04T06:28:52;22.99;52.69
67862;DHT22;54665;51.462;6.698;2022-07-04T06:31:17;23.38;51.32
67862;DHT22;54665;51.462;6.698;2022-07-04T06:33:43;23.71;52.57
67862;DHT22;54665;51.462;6.698;2022-07-04T06:36:27;23.96;50.37
67862;DHT22;54665;51.462;6.698;2022-07-04T06:38:53;24.47;48.66
67862;DHT22;54665;51.462;6.698;2022-07-04T06:41:18;24.11;48.07
67862;DHT22;54665;51.462;6.698;2022-07-04T06:43:44;23.56;49.24
67862;DHT22;54665;51.462;6.698;2022-07-04T06:46:09;23.69;49.00
67862;DHT22;54665;51.462;6.698;2022-07-04T06:48:34;23.97;47.78
67862;DHT22;54665;51.462;6.698;2022-07-04T06:51:00;24.08;46.59
67862;DHT22;54665;51.462;6.698;2022-07-04T06:53:25;23.49;49.21
67862;DHT22;54665;51.462;6.698;2022-07-04T06:55:51;23.32;49.48
67862;DHT22;54665;51.462;6.698;2022-07-04T06:58:16;23.06;49.68
67862;DHT22;54665;51.462;6.698;2022-07-04T07:00:44;23.19;48.82
67862;DHT22;54665;51.462;6.698;2022-07-04T07:03:10;23.60;50.00
67862;DHT22;54665;51.462;6.698;2022-07-04T07:05:36;24.61;46.40
67862;DHT22;54665;51.462;6.698;2022-07-04T07:08:03;24.21;47.76
67862;DHT22;54665;51.462;6.698;2022-07-04T07:10:28;23.74;47.49
67862;DHT22;54665;51.462;6.698;2022-07-04T07:12:54;23.83;48.37
67862;DHT22;54665;51.462;6.698;2022-07-04T07:15:19;24.35;47.18
67862;DHT22;54665;51.462;6.698;2022-07-04T07:17:45;25.34;44.81
67862;DHT22;54665;51.462;6.698;2022-07-04T07:20:13;25.54;45.37
67862;DHT22;54665;51.462;6.698;2022-07-04T07:22:40;25.13;45.06
67862;DHT22;54665;51.462;6.698;2022-07-04T07:25:07;25.02;44.23
67862;DHT22;54665;51.462;6.698;2022-07-04T07:27:32;25.64;44.03
67862;DHT22;54665;51.462;6.698;2022-07-04T07:29:57;25.13;43.33
67862;DHT22;54665;51.462;6.698;2022-07-04T07:32:26;25.00;43.98
67862;DHT22;54665;51.462;6.698;2022-07-04T07:34:51;25.91;42.77
67862;DHT22;54665;51.462;6.698;2022-07-04T07:37:16;25.74;42.40
67862;DHT22;54665;51.462;6.698;2022-07-04T07:39:43;26.05;42.49
67862;DHT22;54665;51.462;6.698;2022-07-04T07:42:09;26.02;40.77
67862;DHT22;54665;51.462;6.698;2022-07-04T07:44:34;26.11;39.63
67862;DHT22;54665;51.462;6.698;2022-07-04T07:46:59;26.56;40.38
67862;DHT22;54665;51.462;6.698;2022-07-04T07:49:25;26.38;40.08
67862;DHT22;54665;51.462;6.698;2022-07-04T07:51:50;25.74;40.21
67862;DHT22;54665;51.462;6.698;2022-07-04T07:54:16;25.17;42.22
67862;DHT22;54665;51.462;6.698;2022-07-04T07:56:42;24.66;42.41
67862;DHT22;54665;51.462;6.698;2022-07-04T07:59:08;25.73;41.91
67862;DHT22;54665;51.462;6.698;2022-07-04T08:01:33;26.31;42.49
67862;DHT22;54665;51.462;6.698;2022-07-04T08:03:58;26.49;39.13
67862;DHT22;54665;51.462;6.698;2022-07-04T08:06:42;26.67;39.46
67862;DHT22;54665;51.462;6.698;2022-07-04T08:09:08;26.32;38.30
67862;DHT22;54665;51.462;6.698;2022-07-04T08:11:33;26.09;40.35
67862;DHT22;54665;51.462;6.698;2022-07-04T08:13:59;26.35;39.95
67862;DHT22;54665;51.462;6.698;2022-07-04T08:16:24;25.57;41.71
67862;DHT22;54665;51.462;6.698;2022-07-04T08:18:50;26.15;41.43
67862;DHT22;54665;51.462;6.698;2022-07-04T08:21:15;26.26;40.93
67862;DHT22;54665;51.462;6.698;2022-07-04T08:23:41;26.87;39.71
67862;DHT22;54665;51.462;6.698;2022-07-04T08:26:07;26.61;41.16
67862;DHT22;54665;51.462;6.698;2022-07-04T08:28:33;25.43;42.43
67862;DHT22;54665;51.462;6.698;2022-07-04T08:30:58;26.21;42.95
67862;DHT22;54665;51.462;6.698;2022-07-04T08:33:25;26.94;39.59
67862;DHT22;54665;51.462;6.698;2022-07-04T08:35:50;27.49;39.31
67862;DHT22;54665;51.462;6.698;2022-07-04T08:38:16;27.35;40.00
67862;DHT22;54665;51.462;6.698;2022-07-04T08:40:42;27.92;37.07
67862;DHT22;54665;51.462;6.698;2022-07-04T08:43:13;26.83;38.78
67862;DHT22;54665;51.462;6.698;2022-07-04T08:45:39;26.66;41.34
67862;DHT22;54665;51.462;6.698;2022-07-04T08:48:07;27.07;39.23
67862;DHT22;54665;51.462;6.698;2022-07-04T08:50:38;27.10;41.02
67862;DHT22;54665;51.462;6.698;2022-07-04T08:53:10;27.17;38.81
67862;DHT22;54665;51.462;6.698;2022-07-04T08:55:40;27.51;36.98
67862;DHT22;54665;51.462;6.698;2022-07-04T08:58:25;27.26;36.81
67862;DHT22;54665;51.462;6.698;2022-07-04T09:00:59;27.23;37.02
67862;DHT22;54665;51.462;6.698;2022-07-04T09:03:26;27.55;36.61
67862;DHT22;54665;51.462;6.698;2022-07-04T09:05:52;26.76;38.13
67862;DHT22;54665;51.462;6.698;2022-07-04T09:08:21;25.60;40.88
67862;DHT22;54665;51.462;6.698;2022-07-04T09:10:48;26.06;39.50
67862;DHT22;54665;51.462;6.698;2022-07-04T09:13:14;27.07;38.78
67862;DHT22;54665;51.462;6.698;2022-07-04T09:15:45;26.82;39.01
67862;DHT22;54665;51.462;6.698;2022-07-04T09:20:50;26.05;38.35
67862;DHT22;54665;51.462;6.698;2022-07-04T09:23:21;25.81;40.37
67862;DHT22;54665;51.462;6.698;2022-07-04T09:25:47;26.53;39.08
67862;DHT22;54665;51.462;6.698;2022-07-04T09:28:26;25.16;38.71
67862;DHT22;54665;51.462;6.698;2022-07-04T09:30:52;24.56;38.36
67862;DHT22;54665;51.462;6.698;2022-07-04T09:33:17;25.07;39.32
67862;DHT22;54665;51.462;6.698;2022-07-04T09:35:44;25.95;40.22
67862;DHT22;54665;51.462;6.698;2022-07-04T09:38:11;26.52;39.90
67862;DHT22;54665;51.462;6.698;2022-07-04T09:40:40;27.17;39.91
67862;DHT22;54665;51.462;6.698;2022-07-04T09:43:25;28.12;37.84
67862;DHT22;54665;51.462;6.698;2022-07-04T09:48:20;27.20;37.84
67862;DHT22;54665;51.462;6.698;2022-07-04T09:50:45;26.79;39.11
67862;DHT22;54665;51.462;6.698;2022-07-04T09:53:10;27.37;39.27
67862;DHT22;54665;51.462;6.698;2022-07-04T09:55:37;28.13;39.17
67862;DHT22;54665;51.462;6.698;2022-07-04T09:58:05;28.26;38.31
67862;DHT22;54665;51.462;6.698;2022-07-04T10:00:42;27.86;39.22
67862;DHT22;54665;51.462;6.698;2022-07-04T10:03:27;28.00;34.49
67862;DHT22;54665;51.462;6.698;2022-07-04T10:06:14;27.69;36.33
67862;DHT22;54665;51.462;6.698;2022-07-04T10:08:43;27.37;36.72
67862;DHT22;54665;51.462;6.698;2022-07-04T10:11:10;27.11;39.19
67862;DHT22;54665;51.462;6.698;2022-07-04T10:13:37;26.98;37.94
67862;DHT22;54665;51.462;6.698;2022-07-04T10:16:06;27.07;37.90
67862;DHT22;54665;51.462;6.698;2022-07-04T10:18:37;27.38;37.44
67862;DHT22;54665;51.462;6.698;2022-07-04T10:21:03;27.55;35.11
67862;DHT22;54665;51.462;6.698;2022-07-04T10:23:28;27.63;35.93
67862;DHT22;54665;51.462;6.698;2022-07-04T10:25:57;27.03;36.44
67862;DHT22;54665;51.462;6.698;2022-07-04T10:28:26;26.98;37.16
67862;DHT22;54665;51.462;6.698;2022-07-04T10:30:53;26.52;37.02
67862;DHT22;54665;51.462;6.698;2022-07-04T10:33:24;27.01;36.98
67862;DHT22;54665;51.462;6.698;2022-07-04T10:35:55;26.80;36.63
67862;DHT22;54665;51.462;6.698;2022-07-04T10:38:25;25.82;37.87
67862;DHT22;54665;51.462;6.698;2022-07-04T10:40:56;25.37;39.86
67862;DHT22;54665;51.462;6.698;2022-07-04T10:45:50;25.78;38.34
67862;DHT22;54665;51.462;6.698;2022-07-04T10:48:21;25.87;38.62
67862;DHT22;54665;51.462;6.698;2022-07-04T10:51:07;26.16;36.55
67862;DHT22;54665;51.462;6.698;2022-07-04T10:56:54;26.38;37.86
67862;DHT22;54665;51.462;6.698;2022-07-04T10:59:39;26.88;39.19
67862;DHT22;54665;51.462;6.698;2022-07-04T11:07:12;27.35;37.50
67862;DHT22;54665;51.462;6.698;2022-07-04T11:09:37;27.06;36.23
67862;DHT22;54665;51.462;6.698;2022-07-04T11:12:04;26.76;35.89
67862;DHT22;54665;51.462;6.698;2022-07-04T11:14:36;26.60;37.82
67862;DHT22;54665;51.462;6.698;2022-07-04T11:17:07;26.57;38.35
67862;DHT22;54665;51.462;6.698;2022-07-04T11:19:33;26.88;38.88
67862;DHT22;54665;51.462;6.698;2022-07-04T11:21:58;27.21;36.97
67862;DHT22;54665;51.462;6.698;2022-07-04T11:24:25;28.03;33.36
67862;DHT22;54665;51.462;6.698;2022-07-04T11:26:51;27.45;33.46
67862;DHT22;54665;51.462;6.698;2022-07-04T11:29:17;26.43;35.93
67862;DHT22;54665;51.462;6.698;2022-07-04T11:31:45;25.36;37.26
67862;DHT22;54665;51.462;6.698;2022-07-04T11:34:11;25.27;38.61
67862;DHT22;54665;51.462;6.698;2022-07-04T11:36:39;24.90;40.39
67862;DHT22;54665;51.462;6.698;2022-07-04T11:39:08;24.64;39.25
67862;DHT22;54665;51.462;6.698;2022-07-04T11:41:37;24.86;38.53
67862;DHT22;54665;51.462;6.698;2022-07-04T11:44:23;24.55;37.56
67862;DHT22;54665;51.462;6.698;2022-07-04T11:47:13;25.27;39.20
67862;DHT22;54665;51.462;6.698;2022-07-04T11:49:45;25.67;39.71
67862;DHT22;54665;51.462;6.698;2022-07-04T11:52:11;25.36;38.47
67862;DHT22;54665;51.462;6.698;2022-07-04T11:54:39;25.98;39.44
67862;DHT22;54665;51.462;6.698;2022-07-04T11:59:37;25.30;37.94
67862;DHT22;54665;51.462;6.698;2022-07-04T12:02:12;24.89;38.42
67862;DHT22;54665;51.462;6.698;2022-07-04T12:04:39;24.36;39.12
67862;DHT22;54665;51.462;6.698;2022-07-04T12:09:36;25.43;40.23
67862;DHT22;54665;51.462;6.698;2022-07-04T12:12:02;26.24;36.23
67862;DHT22;54665;51.462;6.698;2022-07-04T12:14:27;25.75;37.30
67862;DHT22;54665;51.462;6.698;2022-07-04T12:17:14;24.79;39.32
67862;DHT22;54665;51.462;6.698;2022-07-04T12:19:53;24.38;40.26
67862;DHT22;54665;51.462;6.698;2022-07-04T12:22:36;24.08;41.74
67862;DHT22;54665;51.462;6.698;2022-07-04T12:25:05;25.17;40.46
67862;DHT22;54665;51.462;6.698;2022-07-04T12:27:32;25.63;38.55
67862;DHT22;54665;51.462;6.698;2022-07-04T12:29:58;25.82;39.77
67862;DHT22;54665;51.462;6.698;2022-07-04T12:32:44;26.22;38.18
67862;DHT22;54665;51.462;6.698;2022-07-04T12:35:09;25.71;38.63
67862;DHT22;54665;51.462;6.698;2022-07-04T12:37:34;25.80;38.03
67862;DHT22;54665;51.462;6.698;2022-07-04T12:40:09;26.40;38.39
67862;DHT22;54665;51.462;6.698;2022-07-04T12:42:35;26.56;37.10
67862;DHT22;54665;51.462;6.698;2022-07-04T12:45:05;26.67;36.54
67862;DHT22;54665;51.462;6.698;2022-07-04T12:47:32;26.47;37.88
67862;DHT22;54665;51.462;6.698;2022-07-04T12:49:57;26.39;37.02
67862;DHT22;54665;51.462;6.698;2022-07-04T12:52:26;26.83;37.27
67862;DHT22;54665;51.462;6.698;2022-07-04T12:55:07;26.91;35.17
67862;DHT22;54665;51.462;6.698;2022-07-04T12:57:35;26.70;35.78
67862;DHT22;54665;51.462;6.698;2022-07-04T13:00:01;26.66;37.22
67862;DHT22;54665;51.462;6.698;2022-07-04T13:02:27;27.01;37.71
67862;DHT22;54665;51.462;6.698;2022-07-04T13:04:53;26.82;36.51
67862;DHT22;54665;51.462;6.698;2022-07-04T13:07:18;26.32;36.72
67862;DHT22;54665;51.462;6.698;2022-07-04T13:09:45;25.23;38.94
67862;DHT22;54665;51.462;6.698;2022-07-04T13:12:14;24.68;40.98
67862;DHT22;54665;51.462;6.698;2022-07-04T13:14:57;24.15;42.17
67862;DHT22;54665;51.462;6.698;2022-07-04T13:17:24;24.49;40.66
67862;DHT22;54665;51.462;6.698;2022-07-04T13:19:50;24.32;41.01
67862;DHT22;54665;51.462;6.698;2022-07-04T13:22:21;24.11;41.15
67862;DHT22;54665;51.462;6.698;2022-07-04T13:24:46;24.13;41.91
67862;DHT22;54665;51.462;6.698;2022-07-04T13:27:12;24.75;43.03
67862;DHT22;54665;51.462;6.698;2022-07-04T13:29:37;24.85;39.69
67862;DHT22;54665;51.462;6.698;2022-07-04T13:32:04;25.75;40.00
67862;DHT22;54665;51.462;6.698;2022-07-04T13:34:30;27.12;37.09
67862;DHT22;54665;51.462;6.698;2022-07-04T13:36:55;27.55;34.99
67862;DHT22;54665;51.462;6.698;2022-07-04T13:39:22;27.70;35.45
67862;DHT22;54665;51.462;6.698;2022-07-04T13:41:47;27.07;35.78
67862;DHT22;54665;51.462;6.698;2022-07-04T13:44:13;27.11;36.33
67862;DHT22;54665;51.462;6.698;2022-07-04T13:46:42;27.12;36.75
67862;DHT22;54665;51.462;6.698;2022-07-04T13:49:08;26.93;37.32
67862;DHT22;54665;51.462;6.698;2022-07-04T13:51:33;26.55;37.21
67862;DHT22;54665;51.462;6.698;2022-07-04T13:53:59;27.31;36.76
67862;DHT22;54665;51.462;6.698;2022-07-04T13:56:25;27.92;35.36
67862;DHT22;54665;51.462;6.698;2022-07-04T13:58:51;28.26;32.83
67862;DHT22;54665;51.462;6.698;2022-07-04T14:01:17;28.12;35.93
67862;DHT22;54665;51.462;6.698;2022-07-04T14:03:44;27.93;33.61
67862;DHT22;54665;51.462;6.698;2022-07-04T14:06:10;28.77;35.26
67862;DHT22;54665;51.462;6.698;2022-07-04T14:08:35;28.03;31.66
67862;DHT22;54665;51.462;6.698;2022-07-04T14:11:01;28.10;31.42
67862;DHT22;54665;51.462;6.698;2022-07-04T14:13:27;29.02;30.56
67862;DHT22;54665;51.462;6.698;2022-07-04T14:15:52;29.46;30.53
67862;DHT22;54665;51.462;6.698;2022-07-04T14:18:18;29.11;33.78
67862;DHT22;54665;51.462;6.698;2022-07-04T14:20:43;28.98;31.70
67862;DHT22;54665;51.462;6.698;2022-07-04T14:23:09;28.98;31.11
67862;DHT22;54665;51.462;6.698;2022-07-04T14:25:35;29.23;32.25
67862;DHT22;54665;51.462;6.698;2022-07-04T14:28:00;28.84;32.66
67862;DHT22;54665;51.462;6.698;2022-07-04T14:30:25;28.98;32.38
67862;DHT22;54665;51.462;6.698;2022-07-04T14:32:51;27.99;33.31
67862;DHT22;54665;51.462;6.698;2022-07-04T14:35:17;26.96;36.37
67862;DHT22;54665;51.462;6.698;2022-07-04T14:37:43;25.99;40.05
67862;DHT22;54665;51.462;6.698;2022-07-04T14:40:09;25.24;40.01
67862;DHT22;54665;51.462;6.698;2022-07-04T14:42:34;24.72;41.74
67862;DHT22;54665;51.462;6.698;2022-07-04T14:45:00;24.68;43.27
67862;DHT22;54665;51.462;6.698;2022-07-04T14:47:25;25.64;39.00
67862;DHT22;54665;51.462;6.698;2022-07-04T14:49:54;26.49;37.15
67862;DHT22;54665;51.462;6.698;2022-07-04T14:52:19;27.17;36.45
67862;DHT22;54665;51.462;6.698;2022-07-04T14:54:44;26.56;37.14
67862;DHT22;54665;51.462;6.698;2022-07-04T14:57:10;26.82;36.10
67862;DHT22;54665;51.462;6.698;2022-07-04T14:59:35;26.69;35.98
67862;DHT22;54665;51.462;6.698;2022-07-04T15:02:04;27.51;36.24
67862;DHT22;54665;51.462;6.698;2022-07-04T15:04:30;27.92;36.65
67862;DHT22;54665;51.462;6.698;2022-07-04T15:06:55;28.26;35.65
67862;DHT22;54665;51.462;6.698;2022-07-04T15:09:21;28.56;33.65
67862;DHT22;54665;51.462;6.698;2022-07-04T15:11:49;29.01;34.27
67862;DHT22;54665;51.462;6.698;2022-07-04T15:14:17;29.22;32.71
67862;DHT22;54665;51.462;6.698;2022-07-04T15:16:43;28.36;35.43
67862;DHT22;54665;51.462;6.698;2022-07-04T15:19:08;27.18;36.85
67862;DHT22;54665;51.462;6.698;2022-07-04T15:21:34;27.52;35.26
67862;DHT22;54665;51.462;6.698;2022-07-04T15:24:17;27.82;36.60
67862;DHT22;54665;51.462;6.698;2022-07-04T15:26:48;27.48;35.32
67862;DHT22;54665;51.462;6.698;2022-07-04T15:29:22;27.03;37.85
67862;DHT22;54665;51.462;6.698;2022-07-04T15:31:48;27.51;36.28
67862;DHT22;54665;51.462;6.698;2022-07-04T15:34:15;27.49;36.62
67862;DHT22;54665;51.462;6.698;2022-07-04T15:36:41;26.86;38.48
67862;DHT22;54665;51.462;6.698;2022-07-04T15:39:08;25.61;39.00
67862;DHT22;54665;51.462;6.698;2022-07-04T15:41:35;25.23;39.87
67862;DHT22;54665;51.462;6.698;2022-07-04T15:44:01;25.63;40.35
67862;DHT22;54665;51.462;6.698;2022-07-04T15:46:27;25.75;39.46
67862;DHT22;54665;51.462;6.698;2022-07-04T15:48:52;25.19;40.79
67862;DHT22;54665;51.462;6.698;2022-07-04T15:51:18;25.43;40.48